Time;durP1;ratioP1;P1;durP2;ratioP2;P2;SDS_P1;SDS_P2;PMS_P1;PMS_P2;Temp;Humidity;BMP_temperature;BMP_pressure;BME280_temperature;BME280_humidity;BME280_pressure;Samples;Min_cycle;Max_cycle;Signal;HPM_P1;HPM_P2
2022/08/22 00:02:37;;;;;;;9.63;2.78;;;18.30;99.90;;;;;;4973373;28;20038;-49
2022/08/22 00:05:11;;;;;;;10.85;2.95;;;18.20;99.90;;;;;;4973621;28;20113;-50
2022/08/22 00:07:47;;;;;;;7.18;2.42;;;18.20;99.90;;;;;;4971409;28;20046;-52
2022/08/22 00:10:45;;;;;;;9.93;2.75;;;18.10;99.90;;;;;;4955965;28;20502;-46
2022/08/22 00:13:22;;;;;;;8.63;2.72;;;18.20;99.90;;;;;;4942760;28;20050;-53
2022/08/22 00:16:11;;;;;;;12.48;2.90;;;18.20;99.90;;;;;;4954999;28;20134;-49
2022/08/22 00:18:54;;;;;;;8.65;2.75;;;18.10;99.90;;;;;;4953366;28;20059;-47
2022/08/22 00:21:40;;;;;;;9.98;2.80;;;18.10;99.90;;;;;;4954453;28;20134;-48
2022/08/22 00:24:23;;;;;;;10.18;2.83;;;18.10;99.90;;;;;;4953308;28;20043;-52
2022/08/22 00:27:08;;;;;;;7.60;2.58;;;18.10;99.90;;;;;;4954267;28;20531;-52
2022/08/22 00:30:08;;;;;;;9.82;3.03;;;18.10;99.90;;;;;;4953807;28;20039;-53
2022/08/22 00:32:45;;;;;;;8.30;2.80;;;18.10;99.90;;;;;;4954552;28;20094;-51
2022/08/22 00:35:32;;;;;;;8.70;3.08;;;18.10;99.90;;;;;;4966606;28;20042;-53
2022/08/22 00:38:06;;;;;;;8.73;2.85;;;18.10;99.90;;;;;;4955256;28;20042;-53
2022/08/22 00:40:48;;;;;;;8.48;2.90;;;18.20;99.90;;;;;;4972225;28;20069;-52
2022/08/22 00:43:26;;;;;;;8.02;2.88;;;18.10;99.90;;;;;;4972624;28;20042;-50
2022/08/22 00:45:58;;;;;;;6.78;2.80;;;18.10;99.90;;;;;;4972300;28;20039;-52
2022/08/22 00:49:00;;;;;;;9.80;2.97;;;18.10;99.90;;;;;;4972450;28;20042;-53
2022/08/22 00:51:48;;;;;;;9.77;2.90;;;18.00;99.90;;;;;;4972161;28;20050;-51
2022/08/22 00:54:28;;;;;;;9.05;2.75;;;18.00;99.90;;;;;;4960790;28;20054;-50
2022/08/22 00:57:05;;;;;;;7.88;2.83;;;17.90;99.90;;;;;;4953680;28;20093;-51
2022/08/22 00:59:51;;;;;;;10.77;2.83;;;17.90;99.90;;;;;;4952920;28;20054;-52
2022/08/22 01:02:56;;;;;;;8.75;2.55;;;17.80;99.90;;;;;;4962963;28;20106;-52
2022/08/22 01:05:34;;;;;;;8.13;3.00;;;17.90;99.90;;;;;;4923332;28;20484;-51
2022/08/22 01:08:12;;;;;;;9.10;2.90;;;17.90;99.90;;;;;;4952899;28;20043;-52
2022/08/22 01:11:02;;;;;;;10.13;3.28;;;17.80;99.90;;;;;;4971900;28;20089;-51
2022/08/22 01:13:34;;;;;;;8.20;3.03;;;17.80;99.90;;;;;;4971940;28;20395;-53
2022/08/22 01:16:16;;;;;;;8.27;2.78;;;17.80;99.90;;;;;;4971906;28;20042;-49
2022/08/22 01:18:51;;;;;;;6.60;2.90;;;17.80;99.90;;;;;;4971840;28;20047;-51
2022/08/22 01:21:22;;;;;;;8.75;3.00;;;17.70;99.90;;;;;;4972025;28;20086;-52
2022/08/22 01:23:55;;;;;;;8.90;3.05;;;17.70;99.90;;;;;;4971576;28;20039;-50
2022/08/22 01:26:20;;;;;;;8.80;3.22;;;17.60;99.90;;;;;;4971529;28;20063;-50
2022/08/22 01:29:24;;;;;;;8.07;3.28;;;17.60;99.90;;;;;;4970933;28;20043;-52
2022/08/22 01:32:23;;;;;;;7.15;2.85;;;17.60;99.90;;;;;;4971743;28;20062;-53
2022/08/22 01:35:00;;;;;;;7.70;3.03;;;17.60;99.90;;;;;;4971659;28;20074;-51
2022/08/22 01:38:07;;;;;;;9.35;3.03;;;17.50;99.90;;;;;;4970483;28;20386;-50
2022/08/22 01:40:36;;;;;;;7.22;2.97;;;17.50;99.90;;;;;;4952823;28;20446;-53
2022/08/22 01:43:13;;;;;;;8.82;3.38;;;17.50;99.90;;;;;;4953735;28;20035;-51
2022/08/22 01:46:00;;;;;;;10.70;3.30;;;17.40;99.90;;;;;;4952071;28;20043;-49
2022/08/22 01:48:50;;;;;;;8.52;3.30;;;17.50;99.90;;;;;;4952174;28;20039;-52
2022/08/22 01:51:20;;;;;;;9.80;3.45;;;17.40;99.90;;;;;;4955971;28;20038;-51
2022/08/22 01:54:09;;;;;;;8.70;2.90;;;17.30;99.90;;;;;;4971366;28;20093;-50
2022/08/22 01:56:40;;;;;;;8.20;3.20;;;17.40;99.90;;;;;;4971787;28;20047;-49
2022/08/22 01:59:13;;;;;;;8.60;3.08;;;17.30;99.90;;;;;;4952702;28;20067;-54
2022/08/22 02:01:58;;;;;;;8.90;2.95;;;17.20;99.90;;;;;;4953077;28;20038;-51
2022/08/22 02:04:51;;;;;;;8.45;2.92;;;17.30;99.90;;;;;;4952305;28;20074;-50
2022/08/22 02:07:24;;;;;;;8.82;3.25;;;17.30;99.90;;;;;;4951593;28;20045;-52
2022/08/22 02:10:13;;;;;;;8.23;3.13;;;17.30;99.90;;;;;;4952469;28;20047;-54
2022/08/22 02:12:45;;;;;;;10.32;3.30;;;17.30;99.90;;;;;;4952569;28;20082;-51
2022/08/22 02:15:32;;;;;;;7.38;3.08;;;17.20;99.90;;;;;;4952186;28;20046;-52
2022/08/22 02:18:09;;;;;;;9.75;3.67;;;17.30;99.90;;;;;;4951777;28;20114;-51
2022/08/22 02:20:46;;;;;;;9.52;3.53;;;17.30;99.90;;;;;;4952638;28;20046;-51
2022/08/22 02:23:53;;;;;;;10.95;3.60;;;17.30;99.90;;;;;;4960437;28;20070;-55
2022/08/22 02:26:38;;;;;;;7.63;4.18;;;17.30;99.90;;;;;;4956760;28;20114;-50
2022/08/22 02:29:15;;;;;;;9.23;4.03;;;17.20;99.90;;;;;;4956625;28;20035;-50
2022/08/22 02:31:54;;;;;;;10.73;4.20;;;17.20;99.90;;;;;;4956566;28;20039;-52
2022/08/22 02:34:37;;;;;;;7.95;3.78;;;17.20;99.90;;;;;;4955173;28;20070;-52
2022/08/22 02:37:08;;;;;;;8.55;3.55;;;17.20;99.90;;;;;;4955560;28;20050;-49
2022/08/22 02:39:41;;;;;;;8.63;4.30;;;17.20;99.90;;;;;;4955828;28;20047;-51
2022/08/22 02:42:33;;;;;;;11.70;4.15;;;17.10;99.90;;;;;;4955483;28;20106;-50
2022/08/22 02:45:23;;;;;;;9.23;3.95;;;17.10;99.90;;;;;;4955677;28;20407;-52
2022/08/22 02:48:03;;;;;;;12.30;4.43;;;17.00;99.90;;;;;;4955971;28;20039;-53
2022/08/22 02:50:48;;;;;;;10.32;4.50;;;17.00;99.90;;;;;;4955429;28;20056;-51
2022/08/22 02:53:27;;;;;;;11.68;4.70;;;17.00;99.90;;;;;;4974617;28;20039;-51
2022/08/22 02:56:06;;;;;;;9.57;4.07;;;17.00;99.90;;;;;;4975018;28;20046;-52
2022/08/22 02:58:55;;;;;;;11.75;4.43;;;17.00;99.90;;;;;;4973215;28;20458;-52
2022/08/22 03:01:35;;;;;;;9.95;4.03;;;16.90;99.90;;;;;;4937775;28;20055;-50
2022/08/22 03:04:29;;;;;;;10.15;4.43;;;16.90;99.90;;;;;;4974459;28;20035;-54
2022/08/22 03:07:10;;;;;;;9.88;4.10;;;16.90;99.90;;;;;;4974232;28;20049;-50
2022/08/22 03:10:11;;;;;;;9.65;4.32;;;16.90;99.90;;;;;;4958585;28;20051;-52
2022/08/22 03:13:01;;;;;;;8.98;4.07;;;16.90;99.90;;;;;;4952568;28;20055;-50
2022/08/22 03:15:38;;;;;;;9.18;3.90;;;16.80;99.90;;;;;;4955213;28;20396;-53
2022/08/22 03:18:29;;;;;;;11.27;4.28;;;16.90;99.90;;;;;;4956293;28;20046;-50
2022/08/22 03:21:22;;;;;;;8.68;3.80;;;17.00;99.90;;;;;;4954613;28;20191;-52
2022/08/22 03:23:59;;;;;;;14.05;4.13;;;17.00;99.90;;;;;;4955942;28;20550;-50
2022/08/22 03:26:45;;;;;;;12.52;4.45;;;16.90;99.90;;;;;;4955141;28;20487;-51
2022/08/22 03:29:26;;;;;;;10.43;4.47;;;17.00;99.90;;;;;;4954908;28;20047;-49
2022/08/22 03:32:13;;;;;;;9.98;3.70;;;16.90;99.90;;;;;;4955776;28;20051;-52
2022/08/22 03:34:56;;;;;;;10.27;3.97;;;16.90;99.90;;;;;;4971067;28;20097;-47
2022/08/22 03:37:34;;;;;;;8.60;3.58;;;16.90;99.90;;;;;;4973545;28;20039;-52
2022/08/22 03:40:02;;;;;;;9.27;3.70;;;16.90;99.90;;;;;;4973651;28;20035;-51
2022/08/22 03:42:59;;;;;;;10.75;3.88;;;16.90;99.90;;;;;;4973972;28;20074;-50
2022/08/22 03:45:37;;;;;;;10.88;3.90;;;16.90;99.90;;;;;;4973932;28;20538;-52
2022/08/22 03:48:40;;;;;;;12.60;3.80;;;16.90;99.90;;;;;;4973849;28;20043;-53
2022/08/22 03:51:23;;;;;;;8.55;4.05;;;16.90;99.90;;;;;;4973559;28;20093;-53
2022/08/22 03:53:57;;;;;;;9.52;3.60;;;16.90;99.90;;;;;;4966773;28;20046;-51
2022/08/22 03:56:51;;;;;;;12.77;3.92;;;16.90;99.90;;;;;;4955997;28;20470;-50
2022/08/22 03:59:51;;;;;;;9.35;3.28;;;17.00;99.90;;;;;;4954062;28;20404;-52
2022/08/22 04:02:24;;;;;;;9.98;3.60;;;16.90;99.90;;;;;;4954939;28;20039;-50
2022/08/22 04:05:08;;;;;;;12.80;3.95;;;17.00;99.90;;;;;;4973516;28;20049;-48
2022/08/22 04:07:34;;;;;;;7.80;3.28;;;17.00;99.90;;;;;;4973290;28;20129;-48
2022/08/22 04:10:22;;;;;;;8.57;3.70;;;16.90;99.90;;;;;;4973265;28;20054;-49
2022/08/22 04:13:26;;;;;;;13.02;3.83;;;16.90;99.90;;;;;;4973182;28;20073;-49
2022/08/22 04:16:29;;;;;;;9.80;3.53;;;16.90;99.90;;;;;;4941839;28;20099;-53
2022/08/22 04:19:28;;;;;;;11.75;3.80;;;16.80;99.90;;;;;;4955132;28;20395;-50
2022/08/22 04:21:59;;;;;;;13.60;3.55;;;16.80;99.90;;;;;;4955153;28;20039;-53
2022/08/22 04:24:56;;;;;;;12.13;4.03;;;16.80;99.90;;;;;;4961290;28;20130;-49
2022/08/22 04:27:46;;;;;;;10.70;3.80;;;16.70;99.90;;;;;;4955016;28;20039;-52
2022/08/22 04:30:41;;;;;;;12.48;4.63;;;16.70;99.90;;;;;;4960554;28;20464;-53
2022/08/22 04:33:25;;;;;;;10.70;4.45;;;16.80;99.90;;;;;;4955937;28;20043;-52
2022/08/22 04:35:58;;;;;;;9.70;4.10;;;16.80;99.90;;;;;;4956183;28;20503;-49
2022/08/22 04:38:30;;;;;;;9.75;4.03;;;16.80;99.90;;;;;;4959411;28;20054;-49
2022/08/22 04:41:19;;;;;;;11.23;4.78;;;16.80;99.90;;;;;;4956352;28;20039;-51
2022/08/22 04:44:00;;;;;;;12.13;4.63;;;16.80;99.90;;;;;;4961962;28;20345;-50
2022/08/22 04:46:38;;;;;;;9.73;4.35;;;16.80;99.90;;;;;;4962525;28;20122;-51
2022/08/22 04:49:21;;;;;;;12.23;3.90;;;16.70;99.90;;;;;;4960985;28;20047;-53
2022/08/22 04:51:57;;;;;;;9.82;4.05;;;16.70;99.90;;;;;;4961498;28;20051;-52
2022/08/22 04:54:42;;;;;;;12.23;4.07;;;16.70;99.90;;;;;;4959747;28;20502;-49
2022/08/22 04:57:23;;;;;;;13.98;4.05;;;16.70;99.90;;;;;;4966640;28;20042;-53
2022/08/22 04:59:49;;;;;;;8.70;3.88;;;16.70;99.90;;;;;;4962320;28;20054;-51
2022/08/22 05:02:26;;;;;;;9.55;3.47;;;16.70;99.90;;;;;;4972550;28;20027;-47
2022/08/22 05:05:03;;;;;;;10.95;4.50;;;16.70;99.90;;;;;;4959279;28;20055;-50
2022/08/22 05:07:42;;;;;;;10.25;4.03;;;16.70;99.90;;;;;;4967886;28;20050;-54
2022/08/22 05:10:27;;;;;;;12.35;4.10;;;16.80;99.90;;;;;;4964140;28;20077;-52
2022/08/22 05:12:59;;;;;;;10.95;4.10;;;16.70;99.90;;;;;;4966294;28;20559;-50
2022/08/22 05:15:35;;;;;;;11.55;4.32;;;16.70;99.90;;;;;;4970471;28;20050;-48
2022/08/22 05:18:11;;;;;;;13.43;4.00;;;16.70;99.90;;;;;;4950513;28;20058;-53
2022/08/22 05:20:39;;;;;;;10.15;4.10;;;16.70;99.90;;;;;;4971297;28;20050;-50
2022/08/22 05:23:23;;;;;;;10.32;4.25;;;16.70;99.90;;;;;;4964622;28;21087;-52
2022/08/22 05:25:53;;;;;;;9.80;3.97;;;16.70;99.90;;;;;;4963220;28;20051;-53
2022/08/22 05:28:36;;;;;;;10.48;4.07;;;16.70;99.90;;;;;;4966095;28;20498;-51
2022/08/22 05:31:07;;;;;;;12.02;4.10;;;16.70;99.90;;;;;;4959133;28;20480;-54
2022/08/22 05:33:40;;;;;;;13.43;4.03;;;16.70;99.90;;;;;;4965328;28;20070;-49
2022/08/22 05:36:09;;;;;;;9.07;4.00;;;16.80;99.90;;;;;;4958920;28;20032;-49
2022/08/22 05:38:40;;;;;;;10.70;4.60;;;16.80;99.90;;;;;;4961462;28;20038;-52
2022/08/22 05:41:10;;;;;;;10.75;4.50;;;16.80;99.90;;;;;;4958933;28;20612;-54
2022/08/22 05:43:39;;;;;;;11.43;5.10;;;16.80;99.90;;;;;;4954190;28;20058;-49
2022/08/22 05:46:09;;;;;;;12.05;4.63;;;16.80;99.90;;;;;;4961848;28;20038;-51
2022/08/22 05:48:49;;;;;;;11.45;4.22;;;16.80;99.90;;;;;;4963880;28;20074;-51
2022/08/22 05:51:24;;;;;;;8.52;3.67;;;16.90;99.90;;;;;;4960652;28;20391;-51
2022/08/22 05:54:13;;;;;;;9.07;4.40;;;17.00;99.90;;;;;;4961349;28;20789;-51
2022/08/22 05:56:49;;;;;;;13.32;4.65;;;17.00;99.90;;;;;;4961257;28;20475;-51
2022/08/22 05:59:21;;;;;;;9.48;4.50;;;17.00;99.90;;;;;;4961027;28;20035;-50
2022/08/22 06:02:10;;;;;;;9.55;4.50;;;17.10;99.90;;;;;;4962790;28;20137;-50
2022/08/22 06:04:43;;;;;;;11.73;4.63;;;17.10;99.90;;;;;;4961651;28;20035;-53
2022/08/22 06:07:24;;;;;;;10.83;4.60;;;17.10;99.90;;;;;;4963009;28;20487;-51
2022/08/22 06:10:21;;;;;;;11.05;4.65;;;17.20;99.90;;;;;;4960612;28;20514;-51
2022/08/22 06:13:16;;;;;;;10.20;4.78;;;17.20;99.90;;;;;;4944199;28;20429;-48
2022/08/22 06:16:00;;;;;;;10.23;4.30;;;17.30;99.90;;;;;;4961151;28;20089;-54
2022/08/22 06:18:29;;;;;;;11.20;4.35;;;17.30;99.90;;;;;;4961804;28;20438;-52
2022/08/22 06:21:09;;;;;;;13.43;4.40;;;17.30;99.90;;;;;;4957199;28;20126;-51
2022/08/22 06:23:50;;;;;;;9.48;4.55;;;17.40;99.90;;;;;;4961613;28;20093;-54
2022/08/22 06:26:18;;;;;;;9.50;4.40;;;17.40;99.90;;;;;;4958872;28;20113;-53
2022/08/22 06:28:48;;;;;;;12.40;4.40;;;17.40;99.90;;;;;;4959472;28;20193;-52
2022/08/22 06:31:21;;;;;;;12.70;4.68;;;17.40;99.90;;;;;;4962161;28;20042;-56
2022/08/22 06:34:10;;;;;;;12.82;4.93;;;17.50;99.90;;;;;;4957669;28;20066;-49
2022/08/22 06:36:40;;;;;;;9.55;4.30;;;17.60;99.90;;;;;;4947938;28;20463;-51
2022/08/22 06:39:32;;;;;;;11.00;4.75;;;17.50;99.90;;;;;;4959767;28;20061;-52
2022/08/22 06:42:17;;;;;;;10.93;4.35;;;17.70;99.90;;;;;;4957926;28;20169;-52
2022/08/22 06:44:48;;;;;;;8.20;3.92;;;17.70;99.90;;;;;;4959090;28;20035;-54
2022/08/22 06:47:23;;;;;;;11.10;4.30;;;17.80;99.90;;;;;;4943128;28;20065;-52
2022/08/22 06:49:55;;;;;;;8.82;3.72;;;17.80;99.90;;;;;;4960715;28;20037;-48
2022/08/22 06:52:24;;;;;;;8.25;4.18;;;17.70;99.90;;;;;;4953624;28;20050;-54
2022/08/22 06:54:57;;;;;;;11.32;4.43;;;17.80;99.90;;;;;;4955471;28;20054;-53
2022/08/22 06:57:31;;;;;;;12.75;4.18;;;17.80;99.90;;;;;;4961239;28;20058;-52
2022/08/22 06:59:59;;;;;;;12.85;4.03;;;17.90;99.90;;;;;;4954250;28;20054;-53
2022/08/22 07:02:33;;;;;;;10.57;3.92;;;17.90;99.90;;;;;;4957202;28;20409;-54
2022/08/22 07:04:59;;;;;;;9.48;3.50;;;18.00;99.90;;;;;;4955357;28;20040;-51
2022/08/22 07:07:26;;;;;;;15.93;4.30;;;18.00;99.90;;;;;;4959600;28;20089;-52
2022/08/22 07:09:55;;;;;;;10.68;3.90;;;18.10;99.90;;;;;;4962119;28;20046;-50
2022/08/22 07:12:27;;;;;;;11.85;4.70;;;18.00;99.90;;;;;;4956278;28;20051;-55
2022/08/22 07:15:08;;;;;;;10.00;3.78;;;18.10;99.90;;;;;;4955348;28;20038;-52
2022/08/22 07:17:34;;;;;;;14.07;4.00;;;18.20;99.90;;;;;;4961962;28;20125;-51
2022/08/22 07:20:22;;;;;;;11.30;3.83;;;18.20;99.90;;;;;;4974000;28;20186;-51
2022/08/22 07:23:11;;;;;;;13.60;4.10;;;18.30;99.90;;;;;;4973898;28;20417;-54
2022/08/22 07:26:02;;;;;;;9.02;3.50;;;18.40;99.90;;;;;;4973855;28;20062;-52
2022/08/22 07:29:07;;;;;;;9.63;3.90;;;18.50;99.90;;;;;;4973613;28;20049;-54
2022/08/22 07:31:38;;;;;;;9.07;3.47;;;18.50;99.90;;;;;;4895137;29;20044;-51
2022/08/22 07:34:23;;;;;;;9.07;3.28;;;18.50;99.90;;;;;;4962861;28;20393;-52
2022/08/22 07:36:48;;;;;;;;;;;18.40;99.90;;;;;;4955106;28;20051;-55
2022/08/22 07:39:19;;;;;;;9.35;3.38;;;18.40;99.90;;;;;;4954865;28;19922;-51
2022/08/22 07:42:11;;;;;;;11.10;3.47;;;18.40;99.90;;;;;;4954519;28;20559;-51
2022/08/22 07:44:55;;;;;;;11.02;3.70;;;18.50;99.90;;;;;;4954720;28;20407;-52
2022/08/22 07:47:25;;;;;;;9.63;3.60;;;18.40;99.90;;;;;;4954204;28;20525;-43
2022/08/22 07:50:03;;;;;;;10.45;3.88;;;18.50;99.90;;;;;;4955624;28;20050;-48
2022/08/22 07:52:39;;;;;;;11.27;4.15;;;18.50;99.90;;;;;;4971290;28;20039;-46
2022/08/22 07:55:11;;;;;;;12.27;4.25;;;18.60;99.90;;;;;;4955990;28;20035;-45
2022/08/22 07:57:42;;;;;;;12.02;3.90;;;18.60;99.90;;;;;;4958345;28;20050;-45
2022/08/22 08:00:15;;;;;;;12.00;4.32;;;18.70;99.90;;;;;;4961411;28;20039;-47
2022/08/22 08:02:55;;;;;;;12.80;3.95;;;18.80;99.90;;;;;;4962469;28;20560;-46
2022/08/22 08:05:23;;;;;;;9.57;3.85;;;18.80;99.90;;;;;;4964010;28;20027;-45
2022/08/22 08:07:52;;;;;;;10.93;3.75;;;18.90;99.90;;;;;;4962383;28;20042;-47
2022/08/22 08:10:33;;;;;;;11.55;4.00;;;19.00;99.90;;;;;;4960454;28;20035;-46
2022/08/22 08:13:03;;;;;;;10.18;3.33;;;19.20;99.90;;;;;;4961316;28;20042;-48
2022/08/22 08:15:33;;;;;;;10.45;3.50;;;19.30;99.90;;;;;;4962316;28;20039;-46
2022/08/22 08:18:04;;;;;;;10.80;3.50;;;19.40;99.90;;;;;;4962493;28;20547;-45
2022/08/22 08:20:33;;;;;;;8.45;2.88;;;19.40;99.90;;;;;;4963738;28;20061;-46
2022/08/22 08:23:00;;;;;;;12.05;3.42;;;19.50;99.90;;;;;;4961839;28;20035;-48
2022/08/22 08:25:29;;;;;;;10.00;2.90;;;19.60;99.90;;;;;;4960670;28;20491;-46
2022/08/22 08:30:55;;;;;;;13.65;3.40;;;19.80;99.90;;;;;;4960217;28;20466;-48
2022/08/22 08:33:23;;;;;;;7.82;2.63;;;19.90;99.90;;;;;;4960961;28;20793;-45
2022/08/22 08:36:04;;;;;;;9.63;2.30;;;20.00;99.90;;;;;;4953662;28;20071;-46
2022/08/22 08:38:40;;;;;;;8.30;2.28;;;20.00;99.90;;;;;;4959157;28;20789;-45
2022/08/22 08:41:34;;;;;;;10.32;2.40;;;20.20;99.90;;;;;;4968386;28;20039;-50
2022/08/22 08:44:09;;;;;;;9.48;2.40;;;20.30;99.90;;;;;;4942789;28;20050;-49
2022/08/22 08:47:04;;;;;;;8.40;2.25;;;20.40;99.90;;;;;;4961068;28;20043;-48
2022/08/22 08:49:53;;;;;;;8.10;1.90;;;20.40;99.90;;;;;;4957387;28;20043;-44
2022/08/22 08:52:31;;;;;;;9.25;2.45;;;20.40;99.90;;;;;;4957517;28;20035;-49
2022/08/22 08:55:31;;;;;;;5.55;1.67;;;20.30;99.90;;;;;;4969624;28;20487;-46
2022/08/22 08:58:16;;;;;;;8.63;1.95;;;20.30;99.90;;;;;;4951529;28;20154;-49
2022/08/22 09:01:00;;;;;;;8.02;2.10;;;20.30;99.90;;;;;;4958000;28;20047;-51
2022/08/22 09:03:40;;;;;;;6.60;2.38;;;20.60;99.90;;;;;;4964853;28;20055;-45
2022/08/22 09:06:34;;;;;;;9.95;2.22;;;20.80;99.90;;;;;;4961492;28;20038;-45
2022/08/22 09:09:26;;;;;;;12.60;2.30;;;20.70;99.90;;;;;;4960042;28;20035;-45
2022/08/22 09:12:28;;;;;;;7.00;1.83;;;20.80;99.90;;;;;;4962212;28;20061;-49
2022/08/22 09:15:17;;;;;;;9.00;1.80;;;20.70;99.90;;;;;;4937600;28;20066;-44
2022/08/22 09:17:55;;;;;;;8.55;2.10;;;20.70;99.90;;;;;;4957881;28;20046;-46
2022/08/22 09:20:41;;;;;;;8.52;1.88;;;20.80;99.90;;;;;;4963087;28;20051;-44
2022/08/22 09:23:13;;;;;;;8.70;1.80;;;20.80;99.90;;;;;;4960137;28;20035;-46
2022/08/22 09:26:01;;;;;;;9.60;2.20;;;20.90;99.90;;;;;;4956335;28;20516;-47
2022/08/22 09:28:39;;;;;;;6.85;1.92;;;20.90;99.90;;;;;;4970620;28;20034;-48
2022/08/22 09:31:31;;;;;;;6.68;1.95;;;20.90;99.90;;;;;;4963867;28;20045;-48
2022/08/22 09:34:24;;;;;;;6.25;1.70;;;21.00;99.90;;;;;;4959006;28;20034;-48
2022/08/22 09:37:11;;;;;;;6.18;1.85;;;21.00;99.90;;;;;;4971564;28;20058;-49
2022/08/22 09:40:15;;;;;;;7.95;2.25;;;21.10;99.90;;;;;;4954144;28;20479;-44
2022/08/22 09:43:00;;;;;;;5.90;1.75;;;21.20;99.90;;;;;;4956424;28;20049;-47
2022/08/22 09:45:56;;;;;;;8.73;2.00;;;21.30;99.90;;;;;;4956407;28;20045;-46
2022/08/22 09:48:59;;;;;;;8.18;2.03;;;21.40;99.90;;;;;;4960071;28;20054;-47
2022/08/22 09:51:28;;;;;;;6.60;2.08;;;21.50;99.90;;;;;;4956235;28;20039;-45
2022/08/22 09:54:21;;;;;;;10.90;2.22;;;21.60;99.90;;;;;;4954382;28;20054;-47
2022/08/22 09:57:08;;;;;;;8.07;2.10;;;21.70;99.90;;;;;;4957451;28;20039;-45
2022/08/22 09:59:47;;;;;;;7.70;1.98;;;21.80;99.90;;;;;;4957236;28;20551;-44
2022/08/22 10:02:43;;;;;;;8.25;2.08;;;22.00;99.90;;;;;;4957209;28;20039;-48
2022/08/22 10:05:22;;;;;;;9.88;1.80;;;22.30;99.90;;;;;;4959776;28;20046;-49
2022/08/22 10:07:53;;;;;;;7.38;1.85;;;22.50;99.90;;;;;;4955815;28;20299;-48
2022/08/22 10:10:54;;;;;;;6.72;1.73;;;22.90;99.90;;;;;;4953882;28;20065;-44
2022/08/22 10:14:04;;;;;;;7.32;1.80;;;23.00;99.90;;;;;;4961389;28;20104;-46
2022/08/22 10:16:51;;;;;;;5.82;1.40;;;23.00;99.30;;;;;;4947237;28;20399;-46
2022/08/22 10:19:34;;;;;;;8.57;1.80;;;23.00;99.80;;;;;;4960065;28;20055;-44
2022/08/22 10:22:14;;;;;;;7.60;2.17;;;23.20;99.90;;;;;;4954421;28;20051;-46
2022/08/22 10:25:06;;;;;;;5.78;1.63;;;23.30;99.90;;;;;;4952573;28;20055;-47
2022/08/22 10:27:50;;;;;;;5.55;1.70;;;23.30;98.40;;;;;;4951778;28;20039;-50
2022/08/22 10:30:23;;;;;;;7.47;1.77;;;23.10;99.20;;;;;;4969906;28;20071;-45
2022/08/22 10:33:08;;;;;;;10.77;2.00;;;23.10;98.80;;;;;;4966891;28;20039;-45
2022/08/22 10:35:49;;;;;;;8.25;1.85;;;23.40;98.00;;;;;;4957723;28;20042;-48
2022/08/22 10:38:28;;;;;;;7.60;1.90;;;23.40;97.20;;;;;;4955041;28;20043;-49
2022/08/22 10:41:06;;;;;;;7.32;1.52;;;23.40;97.60;;;;;;4962059;28;20046;-45
2022/08/22 10:43:56;;;;;;;5.82;1.60;;;23.50;97.50;;;;;;4962492;28;20039;-46
2022/08/22 10:46:36;;;;;;;5.05;1.60;;;23.60;97.30;;;;;;4973545;28;20039;-50
2022/08/22 10:49:18;;;;;;;4.90;1.60;;;23.60;98.00;;;;;;4969473;28;20048;-48
2022/08/22 10:51:52;;;;;;;7.47;1.80;;;23.30;97.40;;;;;;4959801;28;20043;-46
2022/08/22 10:54:40;;;;;;;7.80;1.65;;;23.40;98.00;;;;;;4922560;28;21212;-47
2022/08/22 10:57:34;;;;;;;7.30;1.85;;;23.60;97.50;;;;;;4961021;28;20070;-45
2022/08/22 11:00:19;;;;;;;8.40;2.22;;;23.50;97.40;;;;;;4956749;28;20085;-46
2022/08/22 11:02:50;;;;;;;5.80;1.58;;;23.70;98.30;;;;;;4961452;28;20051;-45
2022/08/22 11:05:22;;;;;;;4.95;1.40;;;24.00;97.60;;;;;;4962794;28;20036;-48
2022/08/22 11:08:15;;;;;;;4.88;1.30;;;23.90;96.70;;;;;;4965107;28;20506;-51
2022/08/22 11:11:07;;;;;;;6.78;1.25;;;24.30;97.20;;;;;;4964603;28;20103;-49
2022/08/22 11:14:05;;;;;;;7.88;1.63;;;24.30;95.80;;;;;;4962938;28;20066;-46
2022/08/22 11:17:06;;;;;;;5.38;1.23;;;24.20;95.50;;;;;;4960240;28;20043;-45
2022/08/22 11:19:50;;;;;;;9.10;1.65;;;24.30;96.40;;;;;;4967641;28;20042;-47
2022/08/22 11:22:55;;;;;;;7.25;1.70;;;24.30;96.00;;;;;;4963042;28;20126;-46
2022/08/22 11:25:27;;;;;;;;;;;24.50;96.20;;;;;;4939096;28;20782;-47
2022/08/22 11:28:20;;;;;;;4.60;1.48;;;24.40;95.80;;;;;;4967941;28;19918;-47
2022/08/22 11:31:09;;;;;;;7.15;1.60;;;24.40;96.40;;;;;;4965688;28;20115;-45
2022/08/22 11:33:57;;;;;;;7.30;1.50;;;24.60;95.30;;;;;;4965853;28;20070;-47
2022/08/22 11:36:45;;;;;;;7.63;1.70;;;24.70;96.40;;;;;;4963330;28;20043;-45
2022/08/22 11:39:32;;;;;;;6.60;1.52;;;24.80;95.50;;;;;;4963518;28;20043;-45
2022/08/22 11:42:11;;;;;;;11.63;1.65;;;25.00;95.40;;;;;;4967598;28;20465;-49
2022/08/22 11:44:48;;;;;;;4.78;1.50;;;24.90;95.30;;;;;;4964964;28;20586;-49
2022/08/22 11:47:17;;;;;;;5.95;1.40;;;24.90;95.70;;;;;;4966966;28;20042;-51
2022/08/22 11:50:11;;;;;;;6.50;1.65;;;25.20;96.50;;;;;;4966450;28;20043;-44
2022/08/22 11:52:43;;;;;;;5.30;1.58;;;25.20;95.70;;;;;;4966688;28;20051;-49
2022/08/22 11:55:21;;;;;;;6.20;1.77;;;25.20;95.20;;;;;;4963769;28;20038;-49
2022/08/22 11:57:54;;;;;;;6.18;1.80;;;25.40;95.30;;;;;;4963103;28;20082;-49
2022/08/22 12:00:52;;;;;;;6.28;1.50;;;25.30;95.00;;;;;;4967381;28;20050;-49
2022/08/22 12:03:31;;;;;;;6.25;1.75;;;25.30;95.20;;;;;;4965340;28;20045;-46
2022/08/22 12:06:06;;;;;;;6.18;1.60;;;25.40;95.40;;;;;;4946383;28;20046;-46
2022/08/22 12:08:32;;;;;;;7.35;1.50;;;25.70;94.80;;;;;;4965352;28;20041;-47
2022/08/22 12:11:10;;;;;;;6.97;1.80;;;26.10;95.50;;;;;;4967606;28;20034;-48
2022/08/22 12:13:44;;;;;;;7.63;2.03;;;26.20;94.40;;;;;;4964636;28;20110;-47
2022/08/22 12:16:22;;;;;;;6.22;1.50;;;26.50;94.50;;;;;;4950342;28;20144;-47
2022/08/22 12:19:00;;;;;;;8.27;1.90;;;26.60;93.90;;;;;;4958466;28;20051;-47
2022/08/22 12:21:52;;;;;;;5.40;1.20;;;26.50;93.60;;;;;;4970763;28;20050;-46
2022/08/22 12:24:24;;;;;;;5.88;1.52;;;26.10;92.50;;;;;;4964946;28;20054;-47
2022/08/22 12:26:54;;;;;;;6.18;1.65;;;26.20;92.90;;;;;;4964656;28;20051;-46
2022/08/22 12:29:36;;;;;;;4.75;1.35;;;25.80;92.60;;;;;;4965751;28;20499;-48
2022/08/22 12:32:11;;;;;;;5.93;1.60;;;26.00;93.30;;;;;;4957870;28;20035;-50
2022/08/22 12:35:09;;;;;;;8.13;1.67;;;26.00;93.00;;;;;;4958202;28;20035;-51
2022/08/22 12:37:59;;;;;;;7.85;1.80;;;26.00;93.60;;;;;;4967610;28;20054;-46
2022/08/22 12:40:30;;;;;;;10.23;1.60;;;26.50;92.70;;;;;;4959938;28;20067;-47
2022/08/22 12:43:04;;;;;;;5.80;1.60;;;27.00;92.90;;;;;;4961034;28;20129;-46
2022/08/22 12:45:47;;;;;;;8.30;1.80;;;27.00;92.50;;;;;;4951290;28;20035;-46
2022/08/22 12:48:31;;;;;;;;;;;27.00;92.50;;;;;;4962941;28;20043;-49
2022/08/22 12:51:21;;;;;;;6.47;1.80;;;27.50;92.20;;;;;;4953727;28;19926;-44
2022/08/22 12:54:32;;;;;;;7.43;2.13;;;27.70;91.10;;;;;;4953504;28;20035;-49
2022/08/22 12:57:15;;;;;;;8.85;2.15;;;27.40;91.70;;;;;;4953286;28;20099;-51
2022/08/22 12:59:48;;;;;;;4.80;1.42;;;26.80;90.90;;;;;;4971704;28;20478;-48
2022/08/22 13:02:33;;;;;;;6.20;1.80;;;27.10;92.00;;;;;;4954800;28;20090;-49
2022/08/22 13:05:14;;;;;;;6.93;1.65;;;26.80;91.90;;;;;;4952930;28;20039;-47
2022/08/22 13:07:42;;;;;;;8.60;1.95;;;26.70;91.70;;;;;;4964254;28;20047;-45
2022/08/22 13:10:14;;;;;;;6.05;1.60;;;26.90;91.70;;;;;;4961702;28;20130;-46
2022/08/22 13:12:51;;;;;;;9.80;2.00;;;26.90;92.00;;;;;;4960169;28;20056;-49
2022/08/22 13:15:19;;;;;;;7.47;1.85;;;27.00;91.90;;;;;;4966670;28;20098;-45
2022/08/22 13:17:46;;;;;;;5.90;1.70;;;26.90;91.10;;;;;;4962297;28;20126;-46
2022/08/22 13:20:33;;;;;;;9.43;2.10;;;27.10;91.00;;;;;;4953078;28;20046;-44
2022/08/22 13:23:04;;;;;;;6.45;1.83;;;27.10;91.70;;;;;;4970143;28;20120;-47
2022/08/22 13:25:57;;;;;;;7.03;2.08;;;27.30;91.20;;;;;;4952656;28;20508;-48
2022/08/22 13:28:24;;;;;;;7.53;1.77;;;27.80;91.00;;;;;;4953775;28;20043;-45
2022/08/22 13:30:52;;;;;;;8.55;1.90;;;28.20;91.00;;;;;;4958302;28;20084;-44
2022/08/22 13:33:27;;;;;;;5.30;1.90;;;28.60;90.70;;;;;;4952593;28;20078;-45
2022/08/22 13:35:59;;;;;;;8.52;1.80;;;28.70;88.00;;;;;;4953801;28;20053;-50
2022/08/22 13:38:55;;;;;;;7.18;2.00;;;29.10;90.10;;;;;;4956217;28;20122;-45
2022/08/22 13:41:34;;;;;;;7.78;1.92;;;28.60;87.00;;;;;;4960311;28;20094;-51
2022/08/22 13:44:05;;;;;;;8.40;2.13;;;28.30;88.10;;;;;;4957348;28;20416;-47
2022/08/22 13:46:33;;;;;;;9.35;1.90;;;28.20;89.00;;;;;;4937975;28;20035;-46
2022/08/22 13:49:01;;;;;;;7.10;1.90;;;28.50;88.80;;;;;;4960732;28;20046;-47
2022/08/22 13:51:55;;;;;;;7.57;1.85;;;28.60;86.80;;;;;;4958343;28;20554;-48
2022/08/22 13:54:45;;;;;;;7.90;1.55;;;29.10;86.40;;;;;;4961678;28;20039;-48
2022/08/22 13:57:27;;;;;;;6.75;1.80;;;29.30;84.50;;;;;;4961360;28;20077;-49
2022/08/22 14:00:01;;;;;;;5.75;1.52;;;29.10;85.00;;;;;;4966856;28;20074;-47
2022/08/22 14:02:45;;;;;;;6.07;1.70;;;29.50;87.10;;;;;;4959888;28;20097;-49